Time;durP1;ratioP1;P1;durP2;ratioP2;P2;SDS_P1;SDS_P2;PMS_P1;PMS_P2;Temp;Humidity;BMP_temperature;BMP_pressure;BME280_temperature;BME280_humidity;BME280_pressure;Samples;Min_cycle;Max_cycle;Signal;HPM_P1;HPM_P2
2022/10/26 00:01:12;;;;;;;0.00;0.00;;;11.40;99.90;;;;;;4982424;28;20471;-68
2022/10/26 00:03:43;;;;;;;0.00;0.00;;;11.30;99.90;;;;;;4982892;28;20435;-68
2022/10/26 00:06:12;;;;;;;0.00;0.00;;;11.20;99.90;;;;;;4981746;28;20918;-68
2022/10/26 00:08:41;;;;;;;0.00;0.00;;;11.20;99.90;;;;;;4979222;28;20996;-68
2022/10/26 00:11:09;;;;;;;0.00;0.00;;;11.20;99.90;;;;;;4975701;28;20479;-68
2022/10/26 00:13:37;;;;;;;0.00;0.00;;;11.20;99.90;;;;;;4980030;28;20574;-68
2022/10/26 00:16:09;;;;;;;0.00;0.00;;;11.10;99.90;;;;;;4978024;28;20451;-68
2022/10/26 00:18:37;;;;;;;0.00;0.00;;;11.10;99.90;;;;;;4979699;28;20452;-68
2022/10/26 00:21:07;;;;;;;0.00;0.00;;;11.10;99.90;;;;;;4982591;28;20488;-68
2022/10/26 00:23:35;;;;;;;0.00;0.00;;;11.00;99.90;;;;;;4986229;28;20448;-67
2022/10/26 00:26:03;;;;;;;0.00;0.00;;;11.00;99.90;;;;;;4984270;28;20436;-68
2022/10/26 00:28:31;;;;;;;0.00;0.00;;;11.00;99.90;;;;;;4981372;28;20898;-67
2022/10/26 00:31:01;;;;;;;0.00;0.00;;;10.90;99.90;;;;;;4981873;28;20467;-67
2022/10/26 00:33:29;;;;;;;0.00;0.00;;;10.90;99.90;;;;;;4981036;28;20451;-67
2022/10/26 00:35:57;;;;;;;0.00;0.00;;;10.80;99.90;;;;;;4980203;28;20474;-67
2022/10/26 00:38:26;;;;;;;0.00;0.00;;;10.80;99.90;;;;;;4981914;28;20459;-68
2022/10/26 00:40:54;;;;;;;0.00;0.00;;;10.80;99.90;;;;;;4983281;28;20526;-67
2022/10/26 00:43:36;;;;;;;0.00;0.00;;;10.70;99.90;;;;;;4982438;28;20791;-67
2022/10/26 00:46:08;;;;;;;0.00;0.00;;;10.70;99.90;;;;;;4980216;28;20934;-67
2022/10/26 00:48:40;;;;;;;0.00;0.00;;;10.70;99.90;;;;;;4979974;28;20526;-67
2022/10/26 00:51:10;;;;;;;0.00;0.00;;;10.60;99.90;;;;;;4980543;28;20459;-67
2022/10/26 00:53:40;;;;;;;0.00;0.00;;;10.60;99.90;;;;;;4977875;28;20455;-66
2022/10/26 00:56:08;;;;;;;0.00;0.00;;;10.60;99.90;;;;;;4980216;28;20458;-66
2022/10/26 00:58:37;;;;;;;0.00;0.00;;;10.60;99.90;;;;;;4979078;28;20502;-66
2022/10/26 01:01:04;;;;;;;0.00;0.00;;;10.50;99.90;;;;;;4981141;28;20527;-67
2022/10/26 01:03:34;;;;;;;0.00;0.00;;;10.50;99.90;;;;;;4979602;28;20460;-66
2022/10/26 01:06:04;;;;;;;0.00;0.00;;;10.50;99.90;;;;;;4979586;28;20487;-66
2022/10/26 01:08:32;;;;;;;0.00;0.00;;;10.50;99.90;;;;;;4982724;28;20442;-67
2022/10/26 01:11:01;;;;;;;0.00;0.00;;;10.40;99.90;;;;;;4979988;28;20483;-67
2022/10/26 01:13:32;;;;;;;0.00;0.00;;;10.40;99.90;;;;;;4980891;28;20461;-66
2022/10/26 01:16:11;;;;;;;0.00;0.00;;;10.30;99.90;;;;;;4982279;28;20436;-67
2022/10/26 01:18:47;;;;;;;0.00;0.00;;;10.30;99.90;;;;;;4979965;28;20502;-66
2022/10/26 01:21:46;;;;;;;0.00;0.00;;;10.30;99.90;;;;;;4980238;28;20471;-66
2022/10/26 01:24:41;;;;;;;0.00;0.00;;;10.30;99.90;;;;;;4932220;28;20961;-67
2022/10/26 01:27:21;;;;;;;0.00;0.00;;;10.20;99.90;;;;;;4983955;28;20466;-67
2022/10/26 01:30:20;;;;;;;0.00;0.00;;;10.20;99.90;;;;;;4982600;28;20475;-67
2022/10/26 01:33:01;;;;;;;0.00;0.00;;;10.20;99.90;;;;;;4985648;28;20441;-67
2022/10/26 01:35:34;;;;;;;0.00;0.00;;;10.10;99.90;;;;;;4983680;28;20530;-67
2022/10/26 01:38:09;;;;;;;0.00;0.00;;;10.10;99.90;;;;;;4981422;28;20458;-67
2022/10/26 01:40:42;;;;;;;0.00;0.00;;;10.10;99.90;;;;;;4984829;28;20980;-67
2022/10/26 01:43:13;;;;;;;0.00;0.00;;;10.10;99.90;;;;;;4981692;28;20930;-68
2022/10/26 01:45:46;;;;;;;0.00;0.00;;;10.00;99.90;;;;;;4984734;28;20455;-70
2022/10/26 01:48:18;;;;;;;0.00;0.00;;;10.00;99.90;;;;;;4986439;28;20447;-70
2022/10/26 01:50:49;;;;;;;0.00;0.00;;;10.00;99.90;;;;;;4981014;28;20482;-69
2022/10/26 01:53:18;;;;;;;0.00;0.00;;;10.00;99.90;;;;;;4983684;28;20476;-70
2022/10/26 01:55:49;;;;;;;0.00;0.00;;;10.00;99.90;;;;;;4988504;28;20506;-69
2022/10/26 01:58:44;;;;;;;0.00;0.00;;;9.90;99.90;;;;;;4982773;28;20446;-69
2022/10/26 02:01:31;;;;;;;0.00;0.00;;;10.00;99.90;;;;;;4983014;28;20468;-70
2022/10/26 02:04:09;;;;;;;0.00;0.00;;;9.90;99.90;;;;;;4984639;28;20863;-70
2022/10/26 02:06:46;;;;;;;0.00;0.00;;;9.90;99.90;;;;;;4985201;28;20431;-70
2022/10/26 02:09:21;;;;;;;0.00;0.00;;;9.90;99.90;;;;;;4979970;28;20487;-70
2022/10/26 02:11:53;;;;;;;0.00;0.00;;;9.90;99.90;;;;;;4986534;28;20466;-69
2022/10/26 02:20:36;;;;;;;0.00;0.00;;;9.80;99.90;;;;;;4957085;28;20565;-71
2022/10/26 02:23:07;;;;;;;0.00;0.00;;;9.80;99.90;;;;;;4954910;28;20671;-72
2022/10/26 02:25:39;;;;;;;0.00;0.00;;;9.80;99.90;;;;;;4959186;28;20213;-72
2022/10/26 02:28:10;;;;;;;0.00;0.00;;;9.80;99.90;;;;;;4961473;28;20665;-71
2022/10/26 02:30:40;;;;;;;0.00;0.00;;;9.80;99.90;;;;;;4952950;28;20493;-68
2022/10/26 02:33:12;;;;;;;0.00;0.00;;;9.80;99.90;;;;;;4960251;28;20699;-68
2022/10/26 02:35:44;;;;;;;0.00;0.00;;;9.80;99.90;;;;;;4960468;28;20472;-68
2022/10/26 02:38:14;;;;;;;0.00;0.00;;;9.80;99.90;;;;;;4961587;28;20455;-67
2022/10/26 02:40:42;;;;;;;0.00;0.00;;;9.80;99.90;;;;;;4963378;28;20316;-68
2022/10/26 02:43:15;;;;;;;0.00;0.00;;;9.80;99.90;;;;;;4956153;28;20208;-68
2022/10/26 02:45:46;;;;;;;0.00;0.00;;;9.80;99.90;;;;;;4952123;28;20716;-67
2022/10/26 02:48:15;;;;;;;0.00;0.00;;;9.80;99.90;;;;;;4961961;28;20264;-68
2022/10/26 02:50:58;;;;;;;0.00;0.00;;;9.80;99.90;;;;;;4950113;28;20237;-68
2022/10/26 02:53:30;;;;;;;0.00;0.00;;;9.80;99.90;;;;;;4946141;28;20575;-68
2022/10/26 02:56:02;;;;;;;0.00;0.00;;;9.80;99.90;;;;;;4960736;28;20445;-69
2022/10/26 02:58:36;;;;;;;0.00;0.00;;;9.80;99.90;;;;;;4954013;28;20269;-68
2022/10/26 03:01:04;;;;;;;0.00;0.00;;;9.70;99.90;;;;;;4947846;28;20236;-68
2022/10/26 03:03:32;;;;;;;0.00;0.00;;;9.70;99.90;;;;;;4953105;28;20273;-69
2022/10/26 03:06:01;;;;;;;0.00;0.00;;;9.70;99.90;;;;;;4949013;28;20445;-68
2022/10/26 03:08:29;;;;;;;0.00;0.00;;;9.70;99.90;;;;;;4960150;28;20232;-69
2022/10/26 03:10:57;;;;;;;0.00;0.00;;;9.70;99.90;;;;;;4955465;28;20248;-68
2022/10/26 03:13:25;;;;;;;0.00;0.00;;;9.70;99.90;;;;;;4951130;28;20223;-68
2022/10/26 03:15:56;;;;;;;0.00;0.00;;;9.70;99.90;;;;;;4949893;28;20272;-69
2022/10/26 03:18:24;;;;;;;0.00;0.00;;;9.70;99.90;;;;;;4952878;28;20265;-68
2022/10/26 03:20:51;;;;;;;0.00;0.00;;;9.70;99.90;;;;;;4947955;28;20747;-68
2022/10/26 03:23:23;;;;;;;0.00;0.00;;;9.70;99.90;;;;;;4950452;28;20213;-68
2022/10/26 03:25:50;;;;;;;0.00;0.00;;;9.70;99.90;;;;;;4952533;28;20448;-68
2022/10/26 03:28:18;;;;;;;0.00;0.00;;;9.60;99.90;;;;;;4948005;28;20273;-69
2022/10/26 03:30:46;;;;;;;0.00;0.00;;;9.70;99.90;;;;;;4949967;28;20244;-69
2022/10/26 03:33:13;;;;;;;0.00;0.00;;;9.70;99.90;;;;;;4959775;28;20213;-68
2022/10/26 03:35:41;;;;;;;0.00;0.00;;;9.60;99.90;;;;;;4953857;28;20280;-69
2022/10/26 03:38:09;;;;;;;0.00;0.00;;;9.60;99.90;;;;;;4951710;28;20588;-69
2022/10/26 03:40:43;;;;;;;0.00;0.00;;;9.60;99.90;;;;;;4956637;28;20466;-70
2022/10/26 03:43:10;;;;;;;0.00;0.00;;;9.60;99.90;;;;;;4952948;28;20213;-68
2022/10/26 03:45:38;;;;;;;0.00;0.00;;;9.60;99.90;;;;;;4951725;28;20219;-68
2022/10/26 03:48:06;;;;;;;0.00;0.00;;;9.50;99.90;;;;;;4947193;28;20273;-69
2022/10/26 03:50:34;;;;;;;0.00;0.00;;;9.60;99.90;;;;;;4960668;28;20498;-68
2022/10/26 03:53:01;;;;;;;0.00;0.00;;;9.50;99.90;;;;;;4959952;28;20209;-68
2022/10/26 03:55:29;;;;;;;0.00;0.00;;;9.50;99.90;;;;;;4949522;28;21002;-68
2022/10/26 03:57:58;;;;;;;0.00;0.00;;;9.50;99.90;;;;;;4952094;28;21148;-69
2022/10/26 04:00:26;;;;;;;0.00;0.00;;;9.60;99.90;;;;;;4953057;28;20228;-69
2022/10/26 04:02:56;;;;;;;0.00;0.00;;;9.50;99.90;;;;;;4955873;28;20220;-69
2022/10/26 04:05:24;;;;;;;0.00;0.00;;;9.50;99.90;;;;;;4949028;28;20212;-68
2022/10/26 04:07:53;;;;;;;0.00;0.00;;;9.50;99.90;;;;;;4949415;28;20218;-68
2022/10/26 04:10:21;;;;;;;0.00;0.00;;;9.50;99.90;;;;;;4951003;28;20260;-68
2022/10/26 04:12:49;;;;;;;0.00;0.00;;;9.50;99.90;;;;;;4950400;28;20227;-69
2022/10/26 04:15:19;;;;;;;0.00;0.00;;;9.50;99.90;;;;;;4955540;28;20213;-69
2022/10/26 04:17:47;;;;;;;0.00;0.00;;;9.50;99.90;;;;;;4952472;28;20208;-69
2022/10/26 04:20:15;;;;;;;0.00;0.00;;;9.50;99.90;;;;;;4944961;28;20226;-69
2022/10/26 04:22:43;;;;;;;0.00;0.00;;;9.50;99.90;;;;;;4952712;28;20451;-70
2022/10/26 04:25:12;;;;;;;0.00;0.00;;;9.50;99.90;;;;;;4949475;28;20217;-71
2022/10/26 04:27:40;;;;;;;0.00;0.00;;;9.50;99.90;;;;;;4951998;28;20460;-66
2022/10/26 04:30:09;;;;;;;0.00;0.00;;;9.50;99.90;;;;;;4950699;28;20452;-66
2022/10/26 04:32:38;;;;;;;0.00;0.00;;;9.50;99.90;;;;;;4950899;28;20205;-66
2022/10/26 04:35:06;;;;;;;0.00;0.00;;;9.50;99.90;;;;;;4952388;28;20467;-66
2022/10/26 04:37:35;;;;;;;0.00;0.00;;;9.50;99.90;;;;;;4957969;28;20907;-65
2022/10/26 04:40:04;;;;;;;0.00;0.00;;;9.50;99.90;;;;;;4956490;28;20291;-65
2022/10/26 04:42:40;;;;;;;0.00;0.00;;;9.60;99.90;;;;;;4948836;28;20524;-64
2022/10/26 04:45:16;;;;;;;0.00;0.00;;;9.60;99.90;;;;;;4957751;28;20208;-74
2022/10/26 04:47:45;;;;;;;0.00;0.00;;;9.70;99.90;;;;;;4952248;28;20452;-73
2022/10/26 04:50:14;;;;;;;0.00;0.00;;;9.80;99.90;;;;;;4951938;28;20452;-74
2022/10/26 04:52:42;;;;;;;0.00;0.00;;;9.90;99.90;;;;;;4955390;28;20466;-73
2022/10/26 04:55:10;;;;;;;0.00;0.00;;;10.00;99.90;;;;;;4949474;28;20448;-73
2022/10/26 04:57:37;;;;;;;0.00;0.00;;;10.00;99.90;;;;;;4950219;28;20952;-73
2022/10/26 05:00:12;;;;;;;0.00;0.00;;;10.10;99.90;;;;;;4948298;28;20259;-74
2022/10/26 05:02:44;;;;;;;0.00;0.00;;;10.10;99.90;;;;;;4947786;28;20256;-74
2022/10/26 05:05:12;;;;;;;0.00;0.00;;;10.10;99.90;;;;;;4945644;28;20633;-73
2022/10/26 05:07:42;;;;;;;0.00;0.00;;;10.10;99.90;;;;;;4951705;28;20209;-74
2022/10/26 05:10:10;;;;;;;0.00;0.00;;;10.00;99.90;;;;;;4941029;28;20680;-75
2022/10/26 05:12:38;;;;;;;0.00;0.00;;;10.00;99.90;;;;;;4951649;28;20232;-74
2022/10/26 05:15:06;;;;;;;0.00;0.00;;;9.90;99.90;;;;;;4952322;28;20958;-74
2022/10/26 05:17:35;;;;;;;0.00;0.00;;;9.90;99.90;;;;;;4952731;28;20215;-73
2022/10/26 05:20:09;;;;;;;0.00;0.00;;;9.90;99.90;;;;;;4951462;28;20221;-74
2022/10/26 05:22:37;;;;;;;0.00;0.00;;;10.00;99.90;;;;;;4956123;28;20193;-73
2022/10/26 05:25:05;;;;;;;0.00;0.00;;;10.00;99.90;;;;;;4951237;28;20236;-74
2022/10/26 05:27:33;;;;;;;0.00;0.00;;;10.00;99.90;;;;;;4955397;28;20205;-74
2022/10/26 05:30:01;;;;;;;0.00;0.00;;;9.90;99.90;;;;;;4953144;28;21389;-73
2022/10/26 05:32:29;;;;;;;0.00;0.00;;;9.90;99.90;;;;;;4953338;28;20247;-74
2022/10/26 05:34:57;;;;;;;0.00;0.00;;;9.80;99.90;;;;;;4947170;28;20554;-76
2022/10/26 05:37:28;;;;;;;0.00;0.00;;;9.70;99.90;;;;;;4940358;28;20457;-74
2022/10/26 05:39:56;;;;;;;0.00;0.00;;;9.70;99.90;;;;;;4951669;28;20221;-74
2022/10/26 05:42:24;;;;;;;0.00;0.00;;;9.60;99.90;;;;;;4947279;28;20228;-74
2022/10/26 05:44:52;;;;;;;0.00;0.00;;;9.50;99.90;;;;;;4948459;28;20573;-68
2022/10/26 05:47:19;;;;;;;0.00;0.00;;;9.50;99.90;;;;;;4952877;28;20510;-68
2022/10/26 05:49:47;;;;;;;0.00;0.00;;;9.40;99.90;;;;;;4960950;28;20684;-68
2022/10/26 05:52:15;;;;;;;0.00;0.00;;;9.30;99.90;;;;;;4956399;28;20236;-68
2022/10/26 05:54:44;;;;;;;0.00;0.00;;;9.20;99.90;;;;;;4949152;28;20218;-67
2022/10/26 05:57:12;;;;;;;0.00;0.00;;;9.20;99.90;;;;;;4958877;28;20213;-67
2022/10/26 05:59:41;;;;;;;0.00;0.00;;;9.10;99.90;;;;;;4954862;28;20642;-67
2022/10/26 06:02:18;;;;;;;0.00;0.00;;;9.10;99.90;;;;;;4949341;28;20236;-67
2022/10/26 06:04:47;;;;;;;0.00;0.00;;;9.00;99.90;;;;;;4949264;28;20641;-67
2022/10/26 06:07:18;;;;;;;0.00;0.00;;;9.00;99.90;;;;;;4948008;28;20684;-67
2022/10/26 06:09:48;;;;;;;0.00;0.00;;;9.00;99.90;;;;;;4954530;28;20213;-67
2022/10/26 06:12:16;;;;;;;0.00;0.00;;;9.00;99.90;;;;;;4959926;28;20614;-67
2022/10/26 06:14:47;;;;;;;0.00;0.00;;;8.90;99.90;;;;;;4958149;28;20209;-67
2022/10/26 06:17:26;;;;;;;0.00;0.00;;;9.00;99.90;;;;;;4957529;28;20209;-67
2022/10/26 06:20:10;;;;;;;0.00;0.00;;;8.90;99.90;;;;;;4945953;28;20228;-67
2022/10/26 06:22:54;;;;;;;0.00;0.00;;;8.90;99.90;;;;;;4945574;28;20214;-68
2022/10/26 06:25:33;;;;;;;0.00;0.00;;;8.90;99.90;;;;;;4952821;28;20227;-67
2022/10/26 06:28:16;;;;;;;0.00;0.00;;;8.90;99.90;;;;;;4947930;28;20205;-67
2022/10/26 06:30:44;;;;;;;0.00;0.00;;;8.90;99.90;;;;;;4947988;28;20236;-68
2022/10/26 06:33:14;;;;;;;0.00;0.00;;;8.90;99.90;;;;;;4955400;28;21115;-68
2022/10/26 06:36:06;;;;;;;0.00;0.00;;;8.90;99.90;;;;;;4952054;28;20334;-67
2022/10/26 06:38:36;;;;;;;0.00;0.00;;;8.90;99.90;;;;;;4952988;28;20231;-68
2022/10/26 06:41:06;;;;;;;0.00;0.00;;;8.90;99.90;;;;;;4955711;28;20252;-75
2022/10/26 06:43:36;;;;;;;0.00;0.00;;;8.90;99.90;;;;;;4954128;28;20220;-76
2022/10/26 06:46:12;;;;;;;0.00;0.00;;;9.10;99.90;;;;;;4955790;28;20696;-76
2022/10/26 06:48:50;;;;;;;0.00;0.00;;;9.10;99.90;;;;;;4950733;28;20743;-75
2022/10/26 06:51:19;;;;;;;0.00;0.00;;;9.20;99.90;;;;;;4957339;28;20227;-75
2022/10/26 06:53:52;;;;;;;0.00;0.00;;;9.20;99.90;;;;;;4951560;28;20216;-75
2022/10/26 06:56:23;;;;;;;0.00;0.00;;;9.40;99.90;;;;;;4954010;28;20202;-75
2022/10/26 06:58:53;;;;;;;0.00;0.00;;;9.40;99.90;;;;;;4954690;28;20212;-75
2022/10/26 07:01:21;;;;;;;0.00;0.00;;;9.50;99.90;;;;;;4953652;28;20222;-69
2022/10/26 07:03:49;;;;;;;0.00;0.00;;;9.50;99.90;;;;;;4949737;28;20212;-69
2022/10/26 07:06:16;;;;;;;0.00;0.00;;;9.50;99.90;;;;;;4951066;28;20209;-68
2022/10/26 07:08:44;;;;;;;0.00;0.00;;;9.40;99.90;;;;;;4955178;28;20209;-68
2022/10/26 07:11:12;;;;;;;0.00;0.00;;;9.40;99.90;;;;;;4954778;28;20236;-68
2022/10/26 07:13:41;;;;;;;0.00;0.00;;;9.40;99.90;;;;;;4958089;28;20225;-69
2022/10/26 07:16:08;;;;;;;0.00;0.00;;;9.50;99.90;;;;;;4959446;28;20610;-69
2022/10/26 07:18:36;;;;;;;0.00;0.00;;;9.50;99.90;;;;;;4951098;28;20209;-69
2022/10/26 07:21:04;;;;;;;0.00;0.00;;;9.50;99.90;;;;;;4951477;28;20236;-69
2022/10/26 07:23:32;;;;;;;0.00;0.00;;;9.50;99.90;;;;;;4949126;28;20493;-69
2022/10/26 07:26:00;;;;;;;0.00;0.00;;;9.60;99.90;;;;;;4947568;28;20523;-69
2022/10/26 07:28:27;;;;;;;0.00;0.00;;;9.60;99.90;;;;;;4955763;28;20444;-69
2022/10/26 07:30:58;;;;;;;0.00;0.00;;;9.70;99.90;;;;;;4948394;28;20504;-69
2022/10/26 07:33:26;;;;;;;0.00;0.00;;;9.70;99.90;;;;;;4952960;28;20219;-69
2022/10/26 07:35:54;;;;;;;0.00;0.00;;;9.80;99.90;;;;;;4955642;28;20229;-69
2022/10/26 07:38:22;;;;;;;0.00;0.00;;;9.80;99.90;;;;;;4953598;28;20642;-69
2022/10/26 07:40:53;;;;;;;0.00;0.00;;;9.90;99.90;;;;;;4953317;28;20480;-69
2022/10/26 07:43:20;;;;;;;0.00;0.00;;;9.90;99.90;;;;;;4949643;28;20821;-70
2022/10/26 07:45:50;;;;;;;0.00;0.00;;;10.00;99.90;;;;;;4947693;28;20455;-68
2022/10/26 07:48:19;;;;;;;0.00;0.00;;;10.10;99.90;;;;;;4952990;28;20442;-70
2022/10/26 07:50:47;;;;;;;0.00;0.00;;;10.10;99.90;;;;;;4954408;28;20237;-69
2022/10/26 07:53:15;;;;;;;0.00;0.00;;;10.20;99.90;;;;;;4951861;28;20480;-69
2022/10/26 07:55:43;;;;;;;0.00;0.00;;;10.30;99.90;;;;;;4955833;28;21225;-70
2022/10/26 07:58:10;;;;;;;0.00;0.00;;;10.30;99.90;;;;;;4943891;28;20457;-70
2022/10/26 08:00:38;;;;;;;0.00;0.00;;;10.40;99.90;;;;;;4942270;28;20477;-70
2022/10/26 08:03:06;;;;;;;0.00;0.00;;;10.50;99.90;;;;;;4944962;28;20451;-70
2022/10/26 08:05:35;;;;;;;0.00;0.00;;;10.50;99.90;;;;;;4958216;28;20448;-70
2022/10/26 08:08:04;;;;;;;0.00;0.00;;;10.60;99.90;;;;;;4959487;28;20948;-70
2022/10/26 08:10:33;;;;;;;0.00;0.00;;;10.60;99.90;;;;;;4957602;28;20471;-69
2022/10/26 08:13:01;;;;;;;0.00;0.00;;;10.70;99.90;;;;;;4958225;28;20476;-69
2022/10/26 08:15:29;;;;;;;0.00;0.00;;;10.80;99.90;;;;;;4975050;28;20447;-69
2022/10/26 08:17:56;;;;;;;0.00;0.00;;;10.90;99.90;;;;;;4964476;28;20511;-69
2022/10/26 08:20:24;;;;;;;0.00;0.00;;;10.90;99.90;;;;;;4957634;28;20475;-69
2022/10/26 08:22:56;;;;;;;0.00;0.00;;;11.00;99.90;;;;;;4952648;28;20449;-69
2022/10/26 08:25:23;;;;;;;0.00;0.00;;;11.10;99.90;;;;;;4956235;28;20449;-69
2022/10/26 08:27:51;;;;;;;0.00;0.00;;;11.10;99.90;;;;;;4947509;28;20456;-69
2022/10/26 08:30:19;;;;;;;0.00;0.00;;;11.20;99.90;;;;;;4944562;28;20539;-69
2022/10/26 08:32:47;;;;;;;0.00;0.00;;;11.30;99.90;;;;;;4949245;28;20538;-73
2022/10/26 08:35:15;;;;;;;0.00;0.00;;;11.40;99.90;;;;;;4950548;28;20444;-72
2022/10/26 08:37:43;;;;;;;0.00;0.00;;;11.40;99.90;;;;;;4955298;28;20822;-69
2022/10/26 08:40:16;;;;;;;0.00;0.00;;;11.50;99.90;;;;;;4950047;28;20504;-70
2022/10/26 08:42:50;;;;;;;0.00;0.00;;;11.50;99.90;;;;;;4951321;28;20445;-69
2022/10/26 08:45:25;;;;;;;0.00;0.00;;;11.60;99.90;;;;;;4947408;28;20456;-70
2022/10/26 08:48:07;;;;;;;0.00;0.00;;;11.70;99.90;;;;;;4958162;28;20532;-70
2022/10/26 08:50:39;;;;;;;0.00;0.00;;;11.80;99.90;;;;;;4953852;28;20463;-70
2022/10/26 08:53:20;;;;;;;0.00;0.00;;;11.80;99.90;;;;;;4946432;28;20553;-70
2022/10/26 08:55:53;;;;;;;0.00;0.00;;;11.90;99.90;;;;;;4952016;28;20448;-71
2022/10/26 08:58:27;;;;;;;0.00;0.00;;;12.00;99.90;;;;;;4955837;28;20439;-69
2022/10/26 09:00:56;;;;;;;0.00;0.00;;;12.00;99.90;;;;;;4958359;28;20468;-69
2022/10/26 09:03:24;;;;;;;0.00;0.00;;;12.20;99.90;;;;;;4957426;28;20843;-69
2022/10/26 09:06:05;;;;;;;0.00;0.00;;;12.20;99.90;;;;;;4959689;28;20446;-69
2022/10/26 09:08:46;;;;;;;0.00;0.00;;;12.30;99.90;;;;;;4955771;28;20447;-69
2022/10/26 09:11:24;;;;;;;0.00;0.00;;;12.40;99.90;;;;;;4956507;28;20468;-68
2022/10/26 09:14:03;;;;;;;0.00;0.00;;;12.50;99.90;;;;;;4950721;28;20482;-69
2022/10/26 09:16:35;;;;;;;0.00;0.00;;;12.50;99.90;;;;;;4954751;28;20443;-69
2022/10/26 09:19:23;;;;;;;0.00;0.00;;;12.60;99.90;;;;;;4951066;28;20494;-70
2022/10/26 09:21:58;;;;;;;0.00;0.00;;;12.60;99.90;;;;;;4952778;28;20481;-70
2022/10/26 09:24:31;;;;;;;0.00;0.00;;;12.70;99.90;;;;;;4945449;28;20936;-70
2022/10/26 09:27:07;;;;;;;0.00;0.00;;;12.80;99.90;;;;;;4952311;28;20438;-70
2022/10/26 09:29:38;;;;;;;0.00;0.00;;;12.80;99.90;;;;;;4953395;28;20815;-70
2022/10/26 09:32:10;;;;;;;0.00;0.00;;;12.80;99.90;;;;;;4952065;28;20461;-70
2022/10/26 09:34:42;;;;;;;0.00;0.00;;;12.90;99.90;;;;;;4952798;28;20480;-69
2022/10/26 09:37:16;;;;;;;0.00;0.00;;;13.00;99.90;;;;;;4951421;28;20500;-73
2022/10/26 09:39:51;;;;;;;0.00;0.00;;;13.00;99.90;;;;;;4950623;28;20429;-70
2022/10/26 09:42:25;;;;;;;0.00;0.00;;;13.10;99.90;;;;;;4953282;28;20534;-70
2022/10/26 09:44:57;;;;;;;0.00;0.00;;;13.20;99.90;;;;;;4955361;28;20591;-71
2022/10/26 09:47:32;;;;;;;0.00;0.00;;;13.20;99.90;;;;;;4961984;28;20451;-68
2022/10/26 09:50:06;;;;;;;0.00;0.00;;;13.30;99.90;;;;;;4958570;28;20434;-70
2022/10/26 09:52:34;;;;;;;0.00;0.00;;;13.50;99.90;;;;;;4957247;28;20209;-69
2022/10/26 09:55:02;;;;;;;0.00;0.00;;;13.70;99.90;;;;;;4955347;28;21089;-76
2022/10/26 09:57:31;;;;;;;0.00;0.00;;;13.80;99.90;;;;;;4950742;28;20516;-76
2022/10/26 09:59:59;;;;;;;0.00;0.00;;;13.80;99.90;;;;;;4956734;28;20503;-75
2022/10/26 10:02:34;;;;;;;0.00;0.00;;;13.80;99.90;;;;;;4961906;28;20458;-71
2022/10/26 10:05:03;;;;;;;0.00;0.00;;;13.90;99.90;;;;;;4956924;28;20524;-75
2022/10/26 10:07:30;;;;;;;0.00;0.00;;;13.90;99.90;;;;;;4953667;28;20448;-73
2022/10/26 10:10:15;;;;;;;0.00;0.00;;;14.00;99.90;;;;;;4952270;28;20485;-71
2022/10/26 10:12:45;;;;;;;0.00;0.00;;;14.10;99.90;;;;;;4963390;28;20451;-70
2022/10/26 10:15:18;;;;;;;0.00;0.00;;;14.10;99.90;;;;;;4952563;28;20625;-68
2022/10/26 10:17:51;;;;;;;0.00;0.00;;;14.20;99.90;;;;;;4949133;28;20443;-70
2022/10/26 10:20:22;;;;;;;0.00;0.00;;;14.30;99.90;;;;;;4963502;28;20475;-69
2022/10/26 10:22:55;;;;;;;0.00;0.00;;;14.40;99.90;;;;;;4957031;28;20531;-68
2022/10/26 10:25:28;;;;;;;0.00;0.00;;;14.50;99.90;;;;;;4965497;28;20430;-68
2022/10/26 10:28:02;;;;;;;0.00;0.00;;;14.80;99.90;;;;;;4970484;28;21012;-71
2022/10/26 10:30:32;;;;;;;0.00;0.00;;;15.00;99.90;;;;;;4952926;28;20236;-69
2022/10/26 10:33:05;;;;;;;0.00;0.00;;;15.10;99.90;;;;;;4963354;28;20453;-69
2022/10/26 10:35:33;;;;;;;0.00;0.00;;;15.20;99.90;;;;;;4958964;28;21001;-69
2022/10/26 10:38:01;;;;;;;0.00;0.00;;;15.20;99.90;;;;;;4957652;28;20441;-69
2022/10/26 10:40:30;;;;;;;0.00;0.00;;;15.20;99.90;;;;;;4956546;28;20480;-69
2022/10/26 10:43:14;;;;;;;0.00;0.00;;;15.10;99.90;;;;;;4954801;28;20456;-69
2022/10/26 10:45:47;;;;;;;0.00;0.00;;;15.10;99.90;;;;;;4961473;28;20791;-69
2022/10/26 10:48:19;;;;;;;0.00;0.00;;;15.10;99.90;;;;;;4956656;28;20449;-70
2022/10/26 10:50:56;;;;;;;0.00;0.00;;;15.00;99.90;;;;;;4948766;28;20934;-70
2022/10/26 10:53:34;;;;;;;0.00;0.00;;;15.10;99.90;;;;;;4950345;28;20440;-68
2022/10/26 10:56:14;;;;;;;0.00;0.00;;;16.20;99.90;;;;;;4952802;28;20437;-64
2022/10/26 12:17:26;;;;;;;0.00;0.00;;;23.50;99.90;;;;;;5100093;27;20634;-70
2022/10/26 12:20:00;;;;;;;0.00;0.00;;;22.70;99.90;;;;;;5095087;27;20475;-71
2022/10/26 12:22:33;;;;;;;0.00;0.00;;;22.30;99.90;;;;;;5087399;28;20436;-70
2022/10/26 12:25:18;;;;;;;0.00;0.00;;;22.00;99.90;;;;;;5085663;28;20933;-70
2022/10/26 12:27:53;;;;;;;0.00;0.00;;;22.00;99.90;;;;;;5084631;28;20443;-73
2022/10/26 12:30:26;;;;;;;0.00;0.00;;;;;;;;;;5082454;28;20512;-55
2022/10/26 12:32:57;;;;;;;0.00;0.00;;;;;;;;;;5088326;28;20451;-76
2022/10/26 12:37:35;;;;;;;0.00;0.00;;;22.70;99.90;;;;;;5095306;27;20546;-66
2022/10/26 12:40:42;;;;;;;0.00;0.00;;;22.60;99.90;;;;;;5094380;28;20467;-64
2022/10/26 12:43:35;;;;;;;0.00;0.00;;;22.30;99.90;;;;;;5080362;28;20431;-65
2022/10/26 12:46:42;;;;;;;0.00;0.00;;;22.30;99.90;;;;;;5084936;28;20448;-66
2022/10/26 12:52:58;;;;;;;0.00;0.00;;;24.10;99.90;;;;;;5087620;27;20458;-61
2022/10/26 12:55:50;;;;;;;0.00;0.00;;;26.30;95.50;;;;;;5089940;28;20206;-64
2022/10/26 12:59:08;;;;;;;0.00;0.00;;;25.80;65.70;;;;;;5092907;27;20590;-66
2022/10/26 13:02:02;;;;;;;0.00;0.00;;;23.70;70.50;;;;;;5072824;28;20454;-71
2022/10/26 13:04:49;;;;;;;0.00;0.00;;;;;;;;;;5059159;28;20448;-66
2022/10/26 13:09:07;;;;;;;0.00;0.00;;;;;;;;;;5091766;27;20575;-66
2022/10/26 13:12:03;;;;;;;0.00;0.00;;;;;;;;;;5077086;28;20559;-65
2022/10/26 13:14:33;;;;;;;0.00;0.00;;;;;;;;;;5070286;28;20450;-65
2022/10/26 13:17:02;;;;;;;0.00;0.00;;;;;;;;;;5071256;28;20447;-66
2022/10/26 13:19:32;;;;;;;0.00;0.00;;;;;;;;;;5077206;28;20455;-66
2022/10/26 13:22:00;;;;;;;0.00;0.00;;;;;;;;;;5071280;28;20485;-65
2022/10/26 13:24:30;;;;;;;0.00;0.00;;;;;;;;;;5075476;28;21008;-65
2022/10/26 13:27:17;;;;;;;0.00;0.00;;;;;;;;;;5076598;28;20997;-66
2022/10/26 13:30:03;;;;;;;0.00;0.00;;;;;;;;;;5075502;28;20480;-65
2022/10/26 13:32:34;;;;;;;0.00;0.00;;;;;;;;;;5074252;28;20513;-65
2022/10/26 13:35:03;;;;;;;0.00;0.00;;;;;;;;;;5068921;28;20493;-66
2022/10/26 13:37:32;;;;;;;0.00;0.00;;;;;;;;;;5068946;28;20502;-65
2022/10/26 13:40:00;;;;;;;0.00;0.00;;;;;;;;;;5069645;28;21016;-66
2022/10/26 13:42:31;;;;;;;0.00;0.00;;;;;;;;;;5077990;28;20503;-66
2022/10/26 13:45:01;;;;;;;0.00;0.00;;;;;;;;;;5067745;28;20494;-66
2022/10/26 13:47:32;;;;;;;0.00;0.00;;;;;;;;;;5077315;28;20941;-65
2022/10/26 13:50:06;;;;;;;0.00;0.00;;;;;;;;;;5073901;28;20466;-65
2022/10/26 13:52:36;;;;;;;0.00;0.00;;;;;;;;;;5075087;28;21006;-66
2022/10/26 13:55:09;;;;;;;0.00;0.00;;;;;;;;;;5074599;28;20445;-65
2022/10/26 13:58:09;;;;;;;0.00;0.00;;;;;;;;;;5100843;27;20541;-66
2022/10/26 14:01:25;;;;;;;0.00;0.00;;;;;;;;;;5058732;27;20670;-63
2022/10/26 14:03:53;;;;;;;0.00;0.00;;;;;;;;;;5088952;28;20432;-63
2022/10/26 14:06:24;;;;;;;0.00;0.00;;;;;;;;;;5084695;28;21218;-63
2022/10/26 14:08:53;;;;;;;0.00;0.00;;;;;;;;;;5083131;28;20447;-63
2022/10/26 14:11:22;;;;;;;0.00;0.00;;;;;;;;;;5074658;28;20527;-70
2022/10/26 14:13:51;;;;;;;0.00;0.00;;;;;;;;;;4950522;28;1170300;-75
2022/10/26 14:16:21;;;;;;;0.00;0.00;;;;;;;;;;5062629;28;20449;-71
2022/10/26 14:18:50;;;;;;;0.00;0.00;;;29.90;86.20;;;;;;5036321;28;20246;-66
2022/10/26 14:21:21;;;;;;;0.00;0.00;;;26.00;65.30;;;;;;5079971;28;20479;-67
2022/10/26 14:23:51;;;;;;;0.00;0.00;;;23.90;70.00;;;;;;5075829;28;20518;-66
2022/10/26 14:26:20;;;;;;;0.00;0.00;;;23.00;72.40;;;;;;5077180;28;20444;-66
2022/10/26 14:28:50;;;;;;;0.00;0.00;;;22.60;73.60;;;;;;5076584;28;20454;-66
2022/10/26 14:31:24;;;;;;;0.00;0.00;;;22.40;74.30;;;;;;5078306;28;20787;-66
2022/10/26 14:33:54;;;;;;;0.00;0.00;;;22.30;74.60;;;;;;5079663;28;20458;-67
2022/10/26 14:36:25;;;;;;;0.00;0.00;;;22.30;74.60;;;;;;5076965;28;20468;-66
2022/10/26 14:38:57;;;;;;;0.00;0.00;;;22.30;74.70;;;;;;5073761;28;20440;-67
2022/10/26 14:41:26;;;;;;;0.00;0.00;;;22.40;74.30;;;;;;5074672;28;20492;-66
2022/10/26 14:43:57;;;;;;;0.00;0.00;;;22.40;74.20;;;;;;5068153;28;20555;-67
2022/10/26 14:46:25;;;;;;;0.00;0.00;;;22.30;74.70;;;;;;5068639;28;20492;-66
2022/10/26 14:48:56;;;;;;;0.00;0.00;;;22.30;74.90;;;;;;5076285;28;20938;-67
2022/10/26 14:51:29;;;;;;;0.00;0.00;;;22.20;75.00;;;;;;5076811;28;20490;-67
2022/10/26 14:53:58;;;;;;;0.00;0.00;;;22.20;75.40;;;;;;5067905;28;20445;-67
2022/10/26 14:56:29;;;;;;;0.00;0.00;;;22.20;75.70;;;;;;5074349;28;20924;-67
2022/10/26 14:58:58;;;;;;;0.00;0.00;;;22.20;75.40;;;;;;5072244;28;20515;-72